createdAt,value
2022-11-09T00:00:50.912Z,72.62
2022-11-09T00:03:18.902Z,72.62
2022-11-09T00:05:57.559Z,73.03
2022-11-09T00:08:25.695Z,72.87
2022-11-09T00:10:53.437Z,72.81
2022-11-09T00:13:22.788Z,72.80
2022-11-09T00:15:50.856Z,72.74
2022-11-09T00:18:18.614Z,72.65
2022-11-09T00:20:48.275Z,72.62
2022-11-09T00:23:18.331Z,72.80
2022-11-09T00:25:47.414Z,72.90
2022-11-09T00:28:15.874Z,72.77
2022-11-09T00:30:43.608Z,72.76
2022-11-09T00:33:12.186Z,72.72
2022-11-09T00:35:40.063Z,72.59
2022-11-09T00:38:07.988Z,72.61
2022-11-09T00:40:37.090Z,72.45
2022-11-09T00:43:05.938Z,72.42
2022-11-09T00:45:33.654Z,72.30
2022-11-09T00:48:01.457Z,72.25
2022-11-09T00:50:29.566Z,72.05
2022-11-09T00:52:57.388Z,72.26
2022-11-09T00:55:25.116Z,72.35
2022-11-09T00:57:54.943Z,71.73
2022-11-09T01:00:25.185Z,71.95
2022-11-09T01:02:54.281Z,72.02
2022-11-09T01:05:22.097Z,72.09
2022-11-09T01:07:50.250Z,71.74
2022-11-09T01:10:17.981Z,71.91
2022-11-09T01:12:47.591Z,71.67
2022-11-09T01:15:17.503Z,71.76
2022-11-09T01:17:45.449Z,71.78
2022-11-09T01:20:13.326Z,71.57
2022-11-09T01:22:41.044Z,71.50
2022-11-09T01:25:09.552Z,71.60
2022-11-09T01:27:37.515Z,71.69
2022-11-09T01:30:07.737Z,71.37
2022-11-09T01:32:37.138Z,71.23
2022-11-09T01:35:07.116Z,71.15
2022-11-09T01:37:34.979Z,71.23
2022-11-09T01:40:02.730Z,71.10
2022-11-09T01:42:37.080Z,70.96
2022-11-09T01:45:26.480Z,70.96
2022-11-09T01:48:03.949Z,70.93
2022-11-09T01:50:42.294Z,70.92
2022-11-09T01:53:14.224Z,70.80
2022-11-09T01:55:43.014Z,70.73
2022-11-09T01:58:15.367Z,70.76
2022-11-09T02:00:45.993Z,70.88
2022-11-09T02:03:20.836Z,70.93
2022-11-09T02:05:50.766Z,71.03
2022-11-09T02:08:21.162Z,71.20
2022-11-09T02:10:56.226Z,71.05
2022-11-09T02:13:27.549Z,71.19
2022-11-09T02:15:55.883Z,71.03
2022-11-09T02:18:25.017Z,71.09
2022-11-09T02:20:55.899Z,71.17
2022-11-09T02:23:24.951Z,71.41
2022-11-09T02:25:56.614Z,71.24
2022-11-09T02:28:26.274Z,71.09
2022-11-09T02:30:56.664Z,71.20
2022-11-09T02:33:25.686Z,71.26
2022-11-09T02:35:55.893Z,71.57
2022-11-09T02:38:23.782Z,71.52
2022-11-09T02:40:53.976Z,71.85
2022-11-09T02:43:22.157Z,71.80
2022-11-09T02:45:50.373Z,71.69
2022-11-09T02:48:18.203Z,71.94
2022-11-09T02:50:45.999Z,72.09
2022-11-09T02:53:15.097Z,72.43
2022-11-09T02:55:45.658Z,72.76
2022-11-09T02:58:14.422Z,72.61
2022-11-09T03:00:42.311Z,72.90
2022-11-09T03:03:10.199Z,72.54
2022-11-09T03:05:38.015Z,72.72
2022-11-09T03:08:06.464Z,73.03
2022-11-09T03:10:37.410Z,73.00
2022-11-09T03:13:05.382Z,73.56
2022-11-09T03:15:33.061Z,73.08
2022-11-09T03:18:00.928Z,73.49
2022-11-09T03:20:28.722Z,73.33
2022-11-09T03:22:58.653Z,73.35
2022-11-09T03:25:27.443Z,73.65
2022-11-09T03:28:00.249Z,73.83
2022-11-09T03:30:29.054Z,73.43
2022-11-09T03:33:02.573Z,74.13
2022-11-09T03:35:30.569Z,74.19
2022-11-09T03:37:58.680Z,74.00
2022-11-09T03:40:26.741Z,74.49
2022-11-09T03:42:54.575Z,74.16
2022-11-09T03:45:23.943Z,74.42
2022-11-09T03:47:52.009Z,74.89
2022-11-09T03:50:19.966Z,74.47
2022-11-09T03:52:48.525Z,74.99
2022-11-09T03:55:16.231Z,75.27
2022-11-09T03:57:45.330Z,75.51
2022-11-09T04:00:15.961Z,75.22
2022-11-09T04:02:45.408Z,75.55
2022-11-09T04:05:13.587Z,75.28
2022-11-09T04:07:41.319Z,76.20
2022-11-09T04:10:09.684Z,75.89
2022-11-09T04:12:37.495Z,76.07
2022-11-09T04:15:05.961Z,76.21
2022-11-09T04:17:33.719Z,76.63
2022-11-09T04:20:02.913Z,76.58
2022-11-09T04:22:30.643Z,76.10
2022-11-09T04:24:58.388Z,76.20
2022-11-09T04:27:26.445Z,76.29
2022-11-09T04:29:54.278Z,76.41
2022-11-09T04:32:22.027Z,76.33
2022-11-09T04:34:49.784Z,77.15
2022-11-09T04:37:19.049Z,76.60
2022-11-09T04:39:46.795Z,76.46
2022-11-09T04:42:14.538Z,76.74
2022-11-09T04:44:42.285Z,76.52
2022-11-09T04:47:10.120Z,76.80
2022-11-09T04:49:37.987Z,76.87
2022-11-09T04:52:06.053Z,76.99
2022-11-09T04:54:35.172Z,76.96
2022-11-09T04:57:02.886Z,77.42
2022-11-09T04:59:30.700Z,77.16
2022-11-09T05:01:58.498Z,76.99
2022-11-09T05:04:26.286Z,77.06
2022-11-09T05:06:54.171Z,76.72
2022-11-09T05:09:21.898Z,77.01
2022-11-09T05:11:52.857Z,77.27
2022-11-09T05:14:20.579Z,77.13
2022-11-09T05:16:48.361Z,77.19
2022-11-09T05:19:16.160Z,76.77
2022-11-09T05:21:43.978Z,76.99
2022-11-09T05:24:10.947Z,77.08
2022-11-09T05:26:40.708Z,77.00
2022-11-09T05:29:11.204Z,77.41
2022-11-09T05:31:39.878Z,77.08
2022-11-09T05:34:08.594Z,77.15
2022-11-09T05:36:36.303Z,77.20
2022-11-09T05:39:04.463Z,77.39
2022-11-09T05:41:32.199Z,77.60
2022-11-09T05:43:59.883Z,77.62
2022-11-09T05:46:31.201Z,77.42
2022-11-09T05:48:59.014Z,77.70
2022-11-09T05:51:26.751Z,77.96
2022-11-09T05:53:54.577Z,77.55
2022-11-09T05:56:22.332Z,77.73
2022-11-09T05:58:50.147Z,77.63
2022-11-09T06:01:19.748Z,77.87
2022-11-09T06:03:48.872Z,78.29
2022-11-09T06:06:18.192Z,77.70
2022-11-09T06:08:46.018Z,78.00
2022-11-09T06:11:21.563Z,77.67
2022-11-09T06:13:51.560Z,77.57
2022-11-09T06:16:19.275Z,77.55
2022-11-09T06:18:48.367Z,77.46
2022-11-09T06:21:16.173Z,77.07
2022-11-09T06:23:44.014Z,77.04
2022-11-09T06:26:12.598Z,76.87
2022-11-09T06:28:41.749Z,76.60
2022-11-09T06:31:12.701Z,76.63
2022-11-09T06:33:40.596Z,76.73
2022-11-09T06:36:10.757Z,76.91
2022-11-09T06:38:38.564Z,76.70
2022-11-09T06:41:06.512Z,76.83
2022-11-09T06:43:34.281Z,76.89
2022-11-09T06:46:04.105Z,76.84
2022-11-09T06:48:32.005Z,76.90
2022-11-09T06:51:01.789Z,76.90
2022-11-09T06:53:32.385Z,76.93
2022-11-09T06:56:01.070Z,77.14
2022-11-09T06:58:29.829Z,77.03
2022-11-09T07:00:57.731Z,77.06
2022-11-09T07:03:25.641Z,77.00
2022-11-09T07:05:54.104Z,77.12
2022-11-09T07:08:21.850Z,76.62
2022-11-09T07:10:50.965Z,76.83
2022-11-09T07:13:19.195Z,76.74
2022-11-09T07:15:53.541Z,76.78
2022-11-09T07:18:21.326Z,76.90
2022-11-09T07:20:49.117Z,76.76
2022-11-09T07:23:16.866Z,76.98
2022-11-09T07:25:44.815Z,76.41
2022-11-09T07:28:14.118Z,76.22
2022-11-09T07:30:41.877Z,76.06
2022-11-09T07:33:14.925Z,76.45
2022-11-09T07:35:42.914Z,76.35
2022-11-09T07:38:11.106Z,76.15
2022-11-09T07:40:39.458Z,76.15
2022-11-09T07:43:08.044Z,76.12
2022-11-09T07:45:40.014Z,75.98
2022-11-09T07:48:10.415Z,75.67
2022-11-09T07:50:39.425Z,75.19
2022-11-09T07:53:08.545Z,74.99
2022-11-09T07:55:37.269Z,74.96
2022-11-09T07:58:06.850Z,74.79
2022-11-09T08:00:36.562Z,74.70
2022-11-09T08:03:06.159Z,74.83
2022-11-09T08:05:34.702Z,74.56
2022-11-09T08:08:05.582Z,74.74
2022-11-09T08:10:35.125Z,74.47
2022-11-09T08:13:04.864Z,74.71
2022-11-09T08:15:32.938Z,74.64
2022-11-09T08:18:01.930Z,74.66
2022-11-09T08:20:31.836Z,74.70
2022-11-09T08:23:03.660Z,74.97
2022-11-09T08:25:32.327Z,74.73
2022-11-09T08:28:00.255Z,74.77
2022-11-09T08:30:28.954Z,74.58
2022-11-09T08:32:56.930Z,74.33
2022-11-09T08:35:25.405Z,74.35
2022-11-09T08:37:55.255Z,74.59
2022-11-09T08:40:24.930Z,74.49
2022-11-09T08:42:53.406Z,74.58
2022-11-09T08:45:21.609Z,74.62
2022-11-09T08:47:49.345Z,74.33
2022-11-09T08:50:17.593Z,74.10
2022-11-09T08:52:45.386Z,74.27
2022-11-09T08:55:14.639Z,73.87
2022-11-09T08:57:42.494Z,73.44
2022-11-09T09:00:11.091Z,72.79
2022-11-09T09:02:38.888Z,72.34
2022-11-09T09:05:07.270Z,72.21
2022-11-09T09:07:35.048Z,72.37
2022-11-09T09:10:02.789Z,72.16
2022-11-09T09:12:33.171Z,72.00
2022-11-09T09:15:01.062Z,72.16
2022-11-09T09:17:28.957Z,72.16
2022-11-09T09:19:56.750Z,71.98
2022-11-09T09:22:24.498Z,71.91
2022-11-09T09:24:52.184Z,71.82
2022-11-09T09:27:19.934Z,71.77
2022-11-09T09:29:48.966Z,71.45
2022-11-09T09:32:16.696Z,71.34
2022-11-09T09:34:44.508Z,71.07
2022-11-09T09:37:12.492Z,70.99
2022-11-09T09:39:40.205Z,70.68
2022-11-09T09:42:10.030Z,70.37
2022-11-09T09:44:42.051Z,70.61
2022-11-09T09:47:14.869Z,70.87
2022-11-09T09:49:46.541Z,70.61
2022-11-09T09:52:22.629Z,70.56
2022-11-09T09:54:55.714Z,71.22
2022-11-09T09:57:25.395Z,71.23
2022-11-09T09:59:55.849Z,70.99
2022-11-09T10:02:27.255Z,70.95
2022-11-09T10:04:57.463Z,70.78
2022-11-09T10:07:31.256Z,70.94
2022-11-09T10:10:14.542Z,70.20
2022-11-09T10:12:59.090Z,69.90
2022-11-09T10:15:32.319Z,69.20
2022-11-09T10:18:15.192Z,69.00
2022-11-09T10:20:53.144Z,68.83
2022-11-09T10:23:39.961Z,68.05
2022-11-09T10:26:19.130Z,67.96
2022-11-09T10:29:15.189Z,68.46
2022-11-09T10:31:43.494Z,68.32
2022-11-09T10:34:18.718Z,67.94
2022-11-09T10:36:51.144Z,67.33
2022-11-09T10:39:18.879Z,67.74
2022-11-09T10:42:05.426Z,68.21
2022-11-09T10:44:51.798Z,67.91
2022-11-09T10:47:47.834Z,67.40
2022-11-09T10:50:39.131Z,68.05
2022-11-09T10:53:27.191Z,67.95
2022-11-09T10:56:20.738Z,67.57
2022-11-09T10:59:35.929Z,66.05
2022-11-09T11:02:44.608Z,66.00
2022-11-09T11:05:35.845Z,66.43
2022-11-09T11:08:39.352Z,65.07
2022-11-09T11:11:37.049Z,65.41
2022-11-09T11:14:30.721Z,65.35
2022-11-09T11:17:25.179Z,64.05
2022-11-09T11:20:28.878Z,64.14
2022-11-09T11:23:19.083Z,64.05
2022-11-09T11:26:29.079Z,62.32
2022-11-09T11:29:29.517Z,62.12
2022-11-09T11:32:18.211Z,62.82
2022-11-09T11:35:06.418Z,60.78
2022-11-09T11:38:04.726Z,61.40
2022-11-09T11:41:01.757Z,60.72
2022-11-09T11:43:56.039Z,58.76
2022-11-09T11:46:47.393Z,57.18
2022-11-09T11:49:44.440Z,59.39
2022-11-09T11:52:42.347Z,57.21
2022-11-09T11:55:48.144Z,58.33
2022-11-09T11:58:49.238Z,59.32
2022-11-09T12:01:47.148Z,58.74
2022-11-09T12:04:56.207Z,58.88
2022-11-09T12:07:57.221Z,58.98
2022-11-09T12:10:55.966Z,58.71
2022-11-09T12:13:58.483Z,57.94
2022-11-09T12:16:53.370Z,58.98
2022-11-09T12:19:59.729Z,58.18
2022-11-09T12:23:01.283Z,58.23
2022-11-09T12:25:56.613Z,59.03
2022-11-09T12:29:04.353Z,58.82
2022-11-09T12:32:01.294Z,59.52
2022-11-09T12:34:53.832Z,59.43
2022-11-09T12:37:48.658Z,59.43
2022-11-09T12:40:40.339Z,59.36
2022-11-09T12:43:31.349Z,59.48
2022-11-09T12:46:21.804Z,58.22
2022-11-09T12:49:33.330Z,58.37
2022-11-09T12:52:26.638Z,59.63
2022-11-09T12:55:15.611Z,59.56
2022-11-09T12:58:01.920Z,60.29
2022-11-09T13:00:51.551Z,59.65
2022-11-09T13:03:41.788Z,60.31
2022-11-09T13:06:30.046Z,61.19
2022-11-09T13:09:25.745Z,61.14
2022-11-09T13:12:20.357Z,61.60
2022-11-09T13:15:24.444Z,61.93
2022-11-09T13:18:25.761Z,62.42
2022-11-09T13:21:38.463Z,62.26
2022-11-09T13:24:55.753Z,61.82
2022-11-09T13:27:47.123Z,62.07
2022-11-09T13:30:51.582Z,61.20
2022-11-09T13:33:39.211Z,61.40
2022-11-09T13:36:25.358Z,61.58
2022-11-09T13:39:40.202Z,60.07
2022-11-09T13:42:33.632Z,61.03
2022-11-09T13:45:28.982Z,60.40
2022-11-09T13:48:41.797Z,59.37
2022-11-09T13:51:42.698Z,59.47
2022-11-09T13:54:30.884Z,60.05
2022-11-09T13:57:18.648Z,58.80
2022-11-09T14:00:08.003Z,59.49
2022-11-09T14:02:59.978Z,57.49
2022-11-09T14:05:49.127Z,58.44
2022-11-09T14:08:40.384Z,58.82
2022-11-09T14:11:43.839Z,56.74
2022-11-09T14:15:02.532Z,56.89
2022-11-09T14:18:01.062Z,57.84
2022-11-09T14:20:55.978Z,56.61
2022-11-09T14:23:42.159Z,58.07
2022-11-09T14:26:28.450Z,57.98
2022-11-09T14:29:22.491Z,56.72
2022-11-09T14:32:25.290Z,57.66
2022-11-09T14:35:23.896Z,57.57
2022-11-09T14:38:18.531Z,57.33
2022-11-09T14:41:05.728Z,58.17
2022-11-09T14:43:54.508Z,58.61
2022-11-09T14:46:41.167Z,58.90
2022-11-09T14:49:29.596Z,58.99
2022-11-09T14:52:19.209Z,59.53
2022-11-09T14:55:06.158Z,60.02
2022-11-09T14:57:55.815Z,60.32
2022-11-09T15:00:45.957Z,60.75
2022-11-09T15:03:32.825Z,61.05
2022-11-09T15:06:20.295Z,61.46
2022-11-09T15:09:09.725Z,61.92
2022-11-09T15:11:55.950Z,62.34
2022-11-09T15:14:42.024Z,62.39
2022-11-09T15:17:30.782Z,62.93
2022-11-09T15:20:31.209Z,63.33
2022-11-09T15:23:39.321Z,63.46
2022-11-09T15:26:37.574Z,63.81
2022-11-09T15:29:30.576Z,63.79
2022-11-09T15:32:18.949Z,64.01
2022-11-09T15:35:17.056Z,64.14
2022-11-09T15:38:04.019Z,64.07
2022-11-09T15:40:51.519Z,64.19
2022-11-09T15:43:38.270Z,63.84
2022-11-09T15:46:26.558Z,63.76
2022-11-09T15:49:19.400Z,63.69
2022-11-09T15:52:05.956Z,63.34
2022-11-09T15:54:52.405Z,63.23
2022-11-09T15:57:39.850Z,62.87
2022-11-09T16:00:26.204Z,63.23
2022-11-09T16:03:12.621Z,62.93
2022-11-09T16:05:59.775Z,63.63
2022-11-09T16:08:48.147Z,63.61
2022-11-09T16:11:34.728Z,63.91
2022-11-09T16:14:22.801Z,63.82
2022-11-09T16:17:09.160Z,63.79
2022-11-09T16:19:55.199Z,63.33
2022-11-09T16:22:42.105Z,63.79
2022-11-09T16:25:28.757Z,63.91
2022-11-09T16:28:14.982Z,64.01
2022-11-09T16:31:02.348Z,63.83
2022-11-09T16:33:48.971Z,64.44
2022-11-09T16:36:35.057Z,64.55
2022-11-09T16:39:21.872Z,64.95
2022-11-09T16:42:10.323Z,64.95
2022-11-09T16:45:00.158Z,65.57
2022-11-09T16:47:52.375Z,65.87
2022-11-09T16:50:38.845Z,66.21
2022-11-09T16:53:27.114Z,66.43
2022-11-09T16:56:13.858Z,67.02
2022-11-09T16:59:00.046Z,67.00
2022-11-09T17:01:50.831Z,68.00
2022-11-09T17:04:38.622Z,67.15
2022-11-09T17:07:25.058Z,67.39
2022-11-09T17:10:11.560Z,67.42
2022-11-09T17:12:58.197Z,66.99
2022-11-09T17:15:44.829Z,67.24
2022-11-09T17:18:31.318Z,67.54
2022-11-09T17:21:18.768Z,67.57
2022-11-09T17:24:06.378Z,66.99
2022-11-09T17:26:53.173Z,67.31
2022-11-09T17:29:40.974Z,67.34
2022-11-09T17:32:28.233Z,67.70
2022-11-09T17:35:15.166Z,67.99
2022-11-09T17:38:02.539Z,68.31
2022-11-09T17:40:48.777Z,68.27
2022-11-09T17:43:35.859Z,68.78
2022-11-09T17:46:23.268Z,68.51
2022-11-09T17:49:10.705Z,68.54
2022-11-09T17:51:56.789Z,68.88
2022-11-09T17:54:44.224Z,69.77
2022-11-09T17:57:30.356Z,69.32
2022-11-09T18:00:17.698Z,70.13
2022-11-09T18:03:03.822Z,70.27
2022-11-09T18:05:49.919Z,70.55
2022-11-09T18:08:36.210Z,70.61
2022-11-09T18:11:23.901Z,71.18
2022-11-09T18:14:11.069Z,71.15
2022-11-09T18:16:59.553Z,71.31
2022-11-09T18:19:45.967Z,71.54
2022-11-09T18:22:32.143Z,72.60
2022-11-09T18:25:18.574Z,73.17
2022-11-09T18:28:06.519Z,72.63
2022-11-09T18:30:52.836Z,72.27
2022-11-09T18:33:40.053Z,73.71
2022-11-09T18:36:27.750Z,72.55
2022-11-09T18:39:14.165Z,72.91
2022-11-09T18:42:01.870Z,73.17
2022-11-09T18:44:49.498Z,73.29
2022-11-09T18:47:36.525Z,73.18
2022-11-09T18:50:22.815Z,73.63
2022-11-09T18:53:08.938Z,74.19
2022-11-09T18:56:06.043Z,73.22
2022-11-09T18:58:54.319Z,73.56
2022-11-09T19:01:41.980Z,73.12
2022-11-09T19:04:28.118Z,72.82
2022-11-09T19:07:14.263Z,72.62
2022-11-09T19:10:00.789Z,72.72
2022-11-09T19:12:46.874Z,72.79
2022-11-09T19:15:34.960Z,74.03
2022-11-09T19:18:22.949Z,73.30
2022-11-09T19:21:32.012Z,74.01
2022-11-09T19:24:19.926Z,74.08
2022-11-09T19:27:06.214Z,73.77
2022-11-09T19:29:52.236Z,75.67
2022-11-09T19:32:38.527Z,74.35
2022-11-09T19:35:29.655Z,75.92
2022-11-09T19:38:19.381Z,75.85
2022-11-09T19:41:06.369Z,74.59
2022-11-09T19:43:54.717Z,74.86
2022-11-09T19:46:41.899Z,75.52
2022-11-09T19:49:28.232Z,75.44
2022-11-09T19:52:15.868Z,74.75
2022-11-09T19:55:02.058Z,75.66
2022-11-09T19:57:48.623Z,75.35
2022-11-09T20:00:35.715Z,75.62
2022-11-09T20:03:22.141Z,74.39
2022-11-09T20:06:08.566Z,75.10
2022-11-09T20:08:56.611Z,74.46
2022-11-09T20:12:00.453Z,74.19
2022-11-09T20:14:46.829Z,74.20
2022-11-09T20:17:32.911Z,74.54
2022-11-09T20:20:19.343Z,73.77
2022-11-09T20:23:05.876Z,73.45
2022-11-09T20:25:53.846Z,73.64
2022-11-09T20:28:40.110Z,73.18
2022-11-09T20:31:26.245Z,73.35
2022-11-09T20:34:12.870Z,73.00
2022-11-09T20:36:59.285Z,73.10
2022-11-09T20:39:45.786Z,73.09
2022-11-09T20:42:33.692Z,72.57
2022-11-09T20:45:19.938Z,72.59
2022-11-09T20:48:19.447Z,72.51
2022-11-09T20:51:16.430Z,72.43
2022-11-09T20:54:07.254Z,72.48
2022-11-09T20:56:54.198Z,72.59
2022-11-09T20:59:41.973Z,72.93
2022-11-09T21:02:28.137Z,73.08
2022-11-09T21:05:14.601Z,72.91
2022-11-09T21:08:01.857Z,73.20
2022-11-09T21:10:48.261Z,73.75
2022-11-09T21:13:35.105Z,73.71
2022-11-09T21:16:23.783Z,73.74
2022-11-09T21:19:10.185Z,73.71
2022-11-09T21:21:57.369Z,73.95
2022-11-09T21:25:12.476Z,73.99
2022-11-09T21:28:16.395Z,73.96
2022-11-09T21:31:03.428Z,74.18
2022-11-09T21:33:53.091Z,75.01
2022-11-09T21:36:39.491Z,74.86
2022-11-09T21:39:26.123Z,75.34
2022-11-09T21:42:12.519Z,75.23
2022-11-09T21:44:58.862Z,74.97
2022-11-09T21:47:45.119Z,74.86
2022-11-09T21:50:32.827Z,74.71
2022-11-09T21:53:19.806Z,74.77
2022-11-09T21:56:06.829Z,74.45
2022-11-09T21:58:53.418Z,74.52
2022-11-09T22:01:40.857Z,74.28
2022-11-09T22:04:27.435Z,74.17
2022-11-09T22:07:15.113Z,74.20
2022-11-09T22:10:10.752Z,74.05
2022-11-09T22:13:15.232Z,73.93
2022-11-09T22:16:07.986Z,73.86
2022-11-09T22:19:12.137Z,74.39
2022-11-09T22:21:58.438Z,74.26
2022-11-09T22:24:46.407Z,74.46
2022-11-09T22:27:35.388Z,74.73
2022-11-09T22:30:21.835Z,74.94
2022-11-09T22:33:10.681Z,74.71
2022-11-09T22:35:57.471Z,75.02
2022-11-09T22:38:43.975Z,76.18
2022-11-09T22:41:31.339Z,76.79
2022-11-09T22:44:18.008Z,76.11
2022-11-09T22:47:04.631Z,77.14
2022-11-09T22:49:50.804Z,76.60
2022-11-09T22:52:36.862Z,77.24
2022-11-09T22:55:23.136Z,77.42
2022-11-09T22:58:10.944Z,78.37
2022-11-09T23:01:05.000Z,78.68
2022-11-09T23:03:51.442Z,78.40
2022-11-09T23:06:37.977Z,78.58
2022-11-09T23:09:23.962Z,79.69
2022-11-09T23:12:10.386Z,78.10
2022-11-09T23:15:08.595Z,78.21
2022-11-09T23:18:13.403Z,78.48
2022-11-09T23:21:00.933Z,78.12
2022-11-09T23:23:47.326Z,77.39
2022-11-09T23:26:34.095Z,77.91
2022-11-09T23:29:20.441Z,77.17
2022-11-09T23:32:08.419Z,76.84
2022-11-09T23:34:54.554Z,76.54
2022-11-09T23:37:40.683Z,76.35
2022-11-09T23:40:26.868Z,77.15
2022-11-09T23:43:14.023Z,76.59
2022-11-09T23:46:02.528Z,76.38
2022-11-09T23:48:50.063Z,76.71
2022-11-09T23:51:36.302Z,76.58
2022-11-09T23:54:22.354Z,76.90
2022-11-09T23:57:08.518Z,77.28
2022-11-09T23:59:54.704Z,77.85
